sensor_id;sensor_type;location;lat;lon;timestamp;P1;durP1;ratioP1;P2;durP2;ratioP2
6832;SDS011;3454;42.654;23.378;2023-03-14T00:01:08;4.73;;;3.50;;
6832;SDS011;3454;42.654;23.378;2023-03-14T00:03:45;5.23;;;3.60;;
6832;SDS011;3454;42.654;23.378;2023-03-14T00:06:11;5.97;;;4.37;;
6832;SDS011;3454;42.654;23.378;2023-03-14T00:08:36;5.33;;;3.67;;
6832;SDS011;3454;42.654;23.378;2023-03-14T00:11:06;6.23;;;3.63;;
6832;SDS011;3454;42.654;23.378;2023-03-14T00:13:34;4.63;;;3.37;;
6832;SDS011;3454;42.654;23.378;2023-03-14T00:16:06;6.53;;;3.30;;
6832;SDS011;3454;42.654;23.378;2023-03-14T00:18:37;6.43;;;3.33;;
6832;SDS011;3454;42.654;23.378;2023-03-14T00:21:03;4.90;;;3.60;;
6832;SDS011;3454;42.654;23.378;2023-03-14T00:23:31;5.33;;;3.40;;
6832;SDS011;3454;42.654;23.378;2023-03-14T00:25:59;4.23;;;3.37;;
6832;SDS011;3454;42.654;23.378;2023-03-14T00:28:29;7.13;;;3.03;;
6832;SDS011;3454;42.654;23.378;2023-03-14T00:30:54;7.67;;;3.37;;
6832;SDS011;3454;42.654;23.378;2023-03-14T00:33:20;6.90;;;2.93;;
6832;SDS011;3454;42.654;23.378;2023-03-14T00:35:53;4.83;;;3.27;;
6832;SDS011;3454;42.654;23.378;2023-03-14T00:38:19;4.33;;;3.43;;
6832;SDS011;3454;42.654;23.378;2023-03-14T00:40:44;5.43;;;3.70;;
6832;SDS011;3454;42.654;23.378;2023-03-14T00:43:09;5.50;;;3.47;;
6832;SDS011;3454;42.654;23.378;2023-03-14T00:45:35;6.07;;;3.47;;
6832;SDS011;3454;42.654;23.378;2023-03-14T00:48:00;5.33;;;3.40;;
6832;SDS011;3454;42.654;23.378;2023-03-14T00:50:26;5.83;;;3.37;;
6832;SDS011;3454;42.654;23.378;2023-03-14T00:52:51;8.67;;;4.30;;
6832;SDS011;3454;42.654;23.378;2023-03-14T00:55:17;5.30;;;3.50;;
6832;SDS011;3454;42.654;23.378;2023-03-14T00:57:42;4.83;;;3.50;;
6832;SDS011;3454;42.654;23.378;2023-03-14T01:00:08;7.77;;;3.80;;
6832;SDS011;3454;42.654;23.378;2023-03-14T01:02:36;5.97;;;3.43;;
6832;SDS011;3454;42.654;23.378;2023-03-14T01:05:02;5.80;;;3.80;;
6832;SDS011;3454;42.654;23.378;2023-03-14T01:07:27;8.37;;;3.50;;
6832;SDS011;3454;42.654;23.378;2023-03-14T01:09:53;4.63;;;3.60;;
6832;SDS011;3454;42.654;23.378;2023-03-14T01:12:18;5.83;;;3.50;;
6832;SDS011;3454;42.654;23.378;2023-03-14T01:14:44;5.73;;;3.97;;
6832;SDS011;3454;42.654;23.378;2023-03-14T01:17:09;6.67;;;4.33;;
6832;SDS011;3454;42.654;23.378;2023-03-14T01:19:34;6.80;;;3.93;;
6832;SDS011;3454;42.654;23.378;2023-03-14T01:22:00;7.73;;;4.47;;
6832;SDS011;3454;42.654;23.378;2023-03-14T01:24:25;8.80;;;5.00;;
6832;SDS011;3454;42.654;23.378;2023-03-14T01:26:51;9.60;;;5.03;;
6832;SDS011;3454;42.654;23.378;2023-03-14T01:29:16;10.27;;;5.30;;
6832;SDS011;3454;42.654;23.378;2023-03-14T01:31:42;7.53;;;4.40;;
6832;SDS011;3454;42.654;23.378;2023-03-14T01:34:07;6.43;;;4.10;;
6832;SDS011;3454;42.654;23.378;2023-03-14T01:36:32;5.90;;;3.87;;
6832;SDS011;3454;42.654;23.378;2023-03-14T01:38:58;7.83;;;4.60;;
6832;SDS011;3454;42.654;23.378;2023-03-14T01:41:24;4.63;;;3.53;;
6832;SDS011;3454;42.654;23.378;2023-03-14T01:43:50;6.30;;;4.07;;
6832;SDS011;3454;42.654;23.378;2023-03-14T01:46:37;5.73;;;3.17;;
6832;SDS011;3454;42.654;23.378;2023-03-14T01:49:07;4.73;;;3.80;;
6832;SDS011;3454;42.654;23.378;2023-03-14T01:52:03;4.70;;;3.77;;
6832;SDS011;3454;42.654;23.378;2023-03-14T01:54:43;4.80;;;3.60;;
6832;SDS011;3454;42.654;23.378;2023-03-14T01:57:13;6.97;;;3.90;;
6832;SDS011;3454;42.654;23.378;2023-03-14T01:59:43;4.63;;;3.27;;
6832;SDS011;3454;42.654;23.378;2023-03-14T02:02:13;5.20;;;3.23;;
6832;SDS011;3454;42.654;23.378;2023-03-14T02:04:40;5.27;;;3.77;;
6832;SDS011;3454;42.654;23.378;2023-03-14T02:07:15;8.87;;;3.30;;
6832;SDS011;3454;42.654;23.378;2023-03-14T02:09:55;6.80;;;3.07;;
6832;SDS011;3454;42.654;23.378;2023-03-14T02:12:22;4.80;;;3.40;;
6832;SDS011;3454;42.654;23.378;2023-03-14T02:14:48;5.17;;;3.83;;
6832;SDS011;3454;42.654;23.378;2023-03-14T02:17:14;9.33;;;5.13;;
6832;SDS011;3454;42.654;23.378;2023-03-14T02:22:19;10.37;;;6.27;;
6832;SDS011;3454;42.654;23.378;2023-03-14T02:27:17;10.10;;;6.60;;
6832;SDS011;3454;42.654;23.378;2023-03-14T02:32:24;14.83;;;7.53;;
6832;SDS011;3454;42.654;23.378;2023-03-14T02:34:54;12.07;;;7.50;;
6832;SDS011;3454;42.654;23.378;2023-03-14T02:37:23;12.93;;;8.13;;
6832;SDS011;3454;42.654;23.378;2023-03-14T02:39:52;17.83;;;9.10;;
6832;SDS011;3454;42.654;23.378;2023-03-14T02:42:18;15.20;;;9.57;;
6832;SDS011;3454;42.654;23.378;2023-03-14T02:44:54;22.93;;;8.77;;
6832;SDS011;3454;42.654;23.378;2023-03-14T02:47:28;20.13;;;8.73;;
6832;SDS011;3454;42.654;23.378;2023-03-14T02:49:59;13.47;;;8.60;;
6832;SDS011;3454;42.654;23.378;2023-03-14T02:52:28;15.13;;;8.57;;
6832;SDS011;3454;42.654;23.378;2023-03-14T02:54:53;13.40;;;8.97;;
6832;SDS011;3454;42.654;23.378;2023-03-14T02:57:19;18.00;;;8.73;;
6832;SDS011;3454;42.654;23.378;2023-03-14T02:59:44;19.43;;;9.37;;
6832;SDS011;3454;42.654;23.378;2023-03-14T03:02:09;15.70;;;8.77;;
6832;SDS011;3454;42.654;23.378;2023-03-14T03:04:35;22.10;;;9.57;;
6832;SDS011;3454;42.654;23.378;2023-03-14T03:07:00;13.37;;;8.40;;
6832;SDS011;3454;42.654;23.378;2023-03-14T03:09:26;15.93;;;8.60;;
6832;SDS011;3454;42.654;23.378;2023-03-14T03:11:51;15.57;;;8.53;;
6832;SDS011;3454;42.654;23.378;2023-03-14T03:14:16;14.70;;;9.17;;
6832;SDS011;3454;42.654;23.378;2023-03-14T03:16:42;19.17;;;9.80;;
6832;SDS011;3454;42.654;23.378;2023-03-14T03:19:07;15.30;;;9.53;;
6832;SDS011;3454;42.654;23.378;2023-03-14T03:21:32;14.87;;;9.70;;
6832;SDS011;3454;42.654;23.378;2023-03-14T03:23:59;14.60;;;9.13;;
6832;SDS011;3454;42.654;23.378;2023-03-14T03:26:24;18.20;;;8.93;;
6832;SDS011;3454;42.654;23.378;2023-03-14T03:28:50;14.30;;;9.00;;
6832;SDS011;3454;42.654;23.378;2023-03-14T03:31:16;14.77;;;8.87;;
6832;SDS011;3454;42.654;23.378;2023-03-14T03:33:42;15.20;;;9.10;;
6832;SDS011;3454;42.654;23.378;2023-03-14T03:36:07;15.93;;;8.97;;
6832;SDS011;3454;42.654;23.378;2023-03-14T03:38:34;16.83;;;10.03;;
6832;SDS011;3454;42.654;23.378;2023-03-14T03:41:02;17.13;;;9.27;;
6832;SDS011;3454;42.654;23.378;2023-03-14T03:43:31;15.93;;;8.83;;
6832;SDS011;3454;42.654;23.378;2023-03-14T03:45:56;17.03;;;9.10;;
6832;SDS011;3454;42.654;23.378;2023-03-14T03:48:22;14.83;;;9.07;;
6832;SDS011;3454;42.654;23.378;2023-03-14T03:50:47;14.57;;;8.77;;
6832;SDS011;3454;42.654;23.378;2023-03-14T03:53:13;15.90;;;8.13;;
6832;SDS011;3454;42.654;23.378;2023-03-14T03:55:40;17.53;;;9.57;;
6832;SDS011;3454;42.654;23.378;2023-03-14T03:58:07;17.47;;;10.30;;
6832;SDS011;3454;42.654;23.378;2023-03-14T04:00:32;19.60;;;9.57;;
6832;SDS011;3454;42.654;23.378;2023-03-14T04:02:58;14.93;;;8.97;;
6832;SDS011;3454;42.654;23.378;2023-03-14T04:05:24;15.40;;;9.33;;
6832;SDS011;3454;42.654;23.378;2023-03-14T04:07:49;15.80;;;8.47;;
6832;SDS011;3454;42.654;23.378;2023-03-14T04:10:15;18.40;;;9.43;;
6832;SDS011;3454;42.654;23.378;2023-03-14T04:12:40;13.87;;;8.30;;
6832;SDS011;3454;42.654;23.378;2023-03-14T04:15:06;18.07;;;8.40;;
6832;SDS011;3454;42.654;23.378;2023-03-14T04:17:32;12.93;;;8.40;;
6832;SDS011;3454;42.654;23.378;2023-03-14T04:19:58;15.80;;;8.67;;
6832;SDS011;3454;42.654;23.378;2023-03-14T04:22:23;19.43;;;8.80;;
6832;SDS011;3454;42.654;23.378;2023-03-14T04:24:49;13.93;;;7.77;;
6832;SDS011;3454;42.654;23.378;2023-03-14T04:27:14;14.33;;;7.87;;
6832;SDS011;3454;42.654;23.378;2023-03-14T04:29:40;12.50;;;7.93;;
6832;SDS011;3454;42.654;23.378;2023-03-14T04:32:06;15.90;;;8.50;;
6832;SDS011;3454;42.654;23.378;2023-03-14T04:34:31;16.30;;;8.17;;
6832;SDS011;3454;42.654;23.378;2023-03-14T04:36:57;11.83;;;8.43;;
6832;SDS011;3454;42.654;23.378;2023-03-14T04:39:22;12.97;;;8.23;;
6832;SDS011;3454;42.654;23.378;2023-03-14T04:41:48;13.20;;;7.90;;
6832;SDS011;3454;42.654;23.378;2023-03-14T04:44:13;15.53;;;8.40;;
6832;SDS011;3454;42.654;23.378;2023-03-14T04:46:38;15.80;;;9.23;;
6832;SDS011;3454;42.654;23.378;2023-03-14T04:49:04;17.70;;;9.03;;
6832;SDS011;3454;42.654;23.378;2023-03-14T04:51:29;14.43;;;7.87;;
6832;SDS011;3454;42.654;23.378;2023-03-14T04:53:55;14.03;;;8.57;;
6832;SDS011;3454;42.654;23.378;2023-03-14T04:56:20;12.10;;;8.37;;
6832;SDS011;3454;42.654;23.378;2023-03-14T04:58:46;13.80;;;8.37;;
6832;SDS011;3454;42.654;23.378;2023-03-14T05:01:11;14.27;;;8.73;;
6832;SDS011;3454;42.654;23.378;2023-03-14T05:03:37;15.80;;;9.13;;
6832;SDS011;3454;42.654;23.378;2023-03-14T05:06:03;18.43;;;10.13;;
6832;SDS011;3454;42.654;23.378;2023-03-14T05:08:29;14.13;;;9.23;;
6832;SDS011;3454;42.654;23.378;2023-03-14T05:10:55;13.03;;;9.57;;
6832;SDS011;3454;42.654;23.378;2023-03-14T05:13:22;17.37;;;10.23;;
6832;SDS011;3454;42.654;23.378;2023-03-14T05:15:48;19.47;;;9.40;;
6832;SDS011;3454;42.654;23.378;2023-03-14T05:18:15;18.20;;;9.77;;
6832;SDS011;3454;42.654;23.378;2023-03-14T05:20:41;16.27;;;9.87;;
6832;SDS011;3454;42.654;23.378;2023-03-14T05:23:08;18.13;;;10.50;;
6832;SDS011;3454;42.654;23.378;2023-03-14T05:25:34;13.63;;;8.70;;
6832;SDS011;3454;42.654;23.378;2023-03-14T05:27:59;14.73;;;9.53;;
6832;SDS011;3454;42.654;23.378;2023-03-14T05:30:24;14.17;;;9.40;;
6832;SDS011;3454;42.654;23.378;2023-03-14T05:32:50;34.63;;;11.23;;
6832;SDS011;3454;42.654;23.378;2023-03-14T05:35:15;17.63;;;9.63;;
6832;SDS011;3454;42.654;23.378;2023-03-14T05:37:41;15.07;;;8.30;;
6832;SDS011;3454;42.654;23.378;2023-03-14T05:40:06;17.00;;;7.97;;
6832;SDS011;3454;42.654;23.378;2023-03-14T05:42:33;9.70;;;6.77;;
6832;SDS011;3454;42.654;23.378;2023-03-14T05:44:59;9.13;;;5.00;;
6832;SDS011;3454;42.654;23.378;2023-03-14T05:47:25;10.13;;;4.67;;
6832;SDS011;3454;42.654;23.378;2023-03-14T05:49:50;7.50;;;4.70;;
6832;SDS011;3454;42.654;23.378;2023-03-14T05:52:16;12.97;;;4.57;;
6832;SDS011;3454;42.654;23.378;2023-03-14T05:54:41;6.10;;;4.13;;
6832;SDS011;3454;42.654;23.378;2023-03-14T05:57:07;9.90;;;4.80;;
6832;SDS011;3454;42.654;23.378;2023-03-14T05:59:32;14.70;;;5.97;;
6832;SDS011;3454;42.654;23.378;2023-03-14T06:01:58;8.73;;;4.47;;
6832;SDS011;3454;42.654;23.378;2023-03-14T06:04:23;13.23;;;5.50;;
6832;SDS011;3454;42.654;23.378;2023-03-14T06:06:49;8.10;;;4.63;;
6832;SDS011;3454;42.654;23.378;2023-03-14T06:09:15;10.30;;;5.20;;
6832;SDS011;3454;42.654;23.378;2023-03-14T06:11:41;8.80;;;5.50;;
6832;SDS011;3454;42.654;23.378;2023-03-14T06:14:06;9.07;;;5.10;;
6832;SDS011;3454;42.654;23.378;2023-03-14T06:16:32;22.77;;;6.70;;
6832;SDS011;3454;42.654;23.378;2023-03-14T06:18:57;12.80;;;5.80;;
6832;SDS011;3454;42.654;23.378;2023-03-14T06:21:23;8.53;;;5.00;;
6832;SDS011;3454;42.654;23.378;2023-03-14T06:23:48;10.30;;;5.97;;
6832;SDS011;3454;42.654;23.378;2023-03-14T06:26:14;9.67;;;6.17;;
6832;SDS011;3454;42.654;23.378;2023-03-14T06:28:39;12.97;;;5.67;;
6832;SDS011;3454;42.654;23.378;2023-03-14T06:31:05;10.17;;;5.80;;
6832;SDS011;3454;42.654;23.378;2023-03-14T06:33:31;9.90;;;6.40;;
6832;SDS011;3454;42.654;23.378;2023-03-14T06:35:57;8.40;;;5.27;;
6832;SDS011;3454;42.654;23.378;2023-03-14T06:38:22;11.20;;;6.27;;
6832;SDS011;3454;42.654;23.378;2023-03-14T06:40:47;10.13;;;6.23;;
6832;SDS011;3454;42.654;23.378;2023-03-14T06:43:13;9.50;;;5.63;;
6832;SDS011;3454;42.654;23.378;2023-03-14T06:45:38;10.73;;;6.10;;
6832;SDS011;3454;42.654;23.378;2023-03-14T06:48:04;7.87;;;5.13;;
6832;SDS011;3454;42.654;23.378;2023-03-14T06:50:30;9.20;;;5.53;;
6832;SDS011;3454;42.654;23.378;2023-03-14T06:52:55;9.93;;;5.30;;
6832;SDS011;3454;42.654;23.378;2023-03-14T06:55:21;10.80;;;5.47;;
6832;SDS011;3454;42.654;23.378;2023-03-14T06:57:46;13.70;;;5.53;;
6832;SDS011;3454;42.654;23.378;2023-03-14T07:00:12;9.23;;;5.37;;
6832;SDS011;3454;42.654;23.378;2023-03-14T07:02:38;9.10;;;5.60;;
6832;SDS011;3454;42.654;23.378;2023-03-14T07:05:04;14.57;;;6.03;;
6832;SDS011;3454;42.654;23.378;2023-03-14T07:07:31;6.80;;;4.83;;
6832;SDS011;3454;42.654;23.378;2023-03-14T07:09:56;10.87;;;5.27;;
6832;SDS011;3454;42.654;23.378;2023-03-14T07:12:21;8.03;;;5.47;;
6832;SDS011;3454;42.654;23.378;2023-03-14T07:14:48;13.33;;;6.97;;
6832;SDS011;3454;42.654;23.378;2023-03-14T07:17:13;12.90;;;7.43;;
6832;SDS011;3454;42.654;23.378;2023-03-14T07:19:39;17.00;;;7.30;;
6832;SDS011;3454;42.654;23.378;2023-03-14T07:22:04;14.00;;;8.03;;
6832;SDS011;3454;42.654;23.378;2023-03-14T07:24:31;12.97;;;7.23;;
6832;SDS011;3454;42.654;23.378;2023-03-14T07:26:56;10.17;;;6.50;;
6832;SDS011;3454;42.654;23.378;2023-03-14T07:29:22;10.67;;;6.90;;
6832;SDS011;3454;42.654;23.378;2023-03-14T07:31:47;11.23;;;6.83;;
6832;SDS011;3454;42.654;23.378;2023-03-14T07:34:12;16.83;;;7.57;;
6832;SDS011;3454;42.654;23.378;2023-03-14T07:36:38;12.30;;;7.27;;
6832;SDS011;3454;42.654;23.378;2023-03-14T07:39:03;14.17;;;7.83;;
6832;SDS011;3454;42.654;23.378;2023-03-14T07:41:29;10.50;;;7.77;;
6832;SDS011;3454;42.654;23.378;2023-03-14T07:43:55;15.53;;;8.00;;
6832;SDS011;3454;42.654;23.378;2023-03-14T07:46:21;13.73;;;8.10;;
6832;SDS011;3454;42.654;23.378;2023-03-14T07:48:46;11.90;;;7.47;;
6832;SDS011;3454;42.654;23.378;2023-03-14T07:51:12;14.90;;;8.33;;
6832;SDS011;3454;42.654;23.378;2023-03-14T07:53:37;12.90;;;9.27;;
6832;SDS011;3454;42.654;23.378;2023-03-14T07:56:04;16.63;;;9.27;;
6832;SDS011;3454;42.654;23.378;2023-03-14T07:58:31;18.43;;;9.70;;
6832;SDS011;3454;42.654;23.378;2023-03-14T08:00:58;16.23;;;9.40;;
6832;SDS011;3454;42.654;23.378;2023-03-14T08:03:23;26.20;;;10.53;;
6832;SDS011;3454;42.654;23.378;2023-03-14T08:05:49;16.30;;;9.60;;
6832;SDS011;3454;42.654;23.378;2023-03-14T08:08:15;13.60;;;8.57;;
6832;SDS011;3454;42.654;23.378;2023-03-14T08:10:42;16.87;;;9.13;;
6832;SDS011;3454;42.654;23.378;2023-03-14T08:13:08;17.70;;;9.70;;
6832;SDS011;3454;42.654;23.378;2023-03-14T08:15:34;18.50;;;8.80;;
6832;SDS011;3454;42.654;23.378;2023-03-14T08:18:00;15.90;;;9.10;;
6832;SDS011;3454;42.654;23.378;2023-03-14T08:20:26;18.53;;;9.47;;
6832;SDS011;3454;42.654;23.378;2023-03-14T08:22:55;13.73;;;9.10;;
6832;SDS011;3454;42.654;23.378;2023-03-14T08:25:21;13.57;;;9.20;;
6832;SDS011;3454;42.654;23.378;2023-03-14T08:27:47;12.10;;;7.87;;
6832;SDS011;3454;42.654;23.378;2023-03-14T08:30:13;14.67;;;8.13;;
6832;SDS011;3454;42.654;23.378;2023-03-14T08:32:40;21.07;;;8.97;;
6832;SDS011;3454;42.654;23.378;2023-03-14T08:35:06;17.10;;;7.43;;
6832;SDS011;3454;42.654;23.378;2023-03-14T08:37:32;10.93;;;7.90;;
6832;SDS011;3454;42.654;23.378;2023-03-14T08:39:58;13.37;;;7.17;;
6832;SDS011;3454;42.654;23.378;2023-03-14T08:42:24;18.73;;;8.00;;
6832;SDS011;3454;42.654;23.378;2023-03-14T08:44:50;13.30;;;7.70;;
6832;SDS011;3454;42.654;23.378;2023-03-14T08:47:16;15.27;;;8.07;;
6832;SDS011;3454;42.654;23.378;2023-03-14T08:49:42;10.20;;;7.07;;
6832;SDS011;3454;42.654;23.378;2023-03-14T08:52:07;11.17;;;7.50;;
6832;SDS011;3454;42.654;23.378;2023-03-14T08:54:33;10.23;;;7.00;;
6832;SDS011;3454;42.654;23.378;2023-03-14T08:56:59;9.67;;;6.87;;
6832;SDS011;3454;42.654;23.378;2023-03-14T08:59:24;10.37;;;6.53;;
6832;SDS011;3454;42.654;23.378;2023-03-14T09:01:50;10.43;;;6.37;;
6832;SDS011;3454;42.654;23.378;2023-03-14T09:04:15;15.60;;;6.97;;
6832;SDS011;3454;42.654;23.378;2023-03-14T09:06:41;10.27;;;6.50;;
6832;SDS011;3454;42.654;23.378;2023-03-14T09:09:07;11.07;;;6.73;;
6832;SDS011;3454;42.654;23.378;2023-03-14T09:11:39;13.77;;;6.80;;
6832;SDS011;3454;42.654;23.378;2023-03-14T09:14:04;12.07;;;6.73;;
6832;SDS011;3454;42.654;23.378;2023-03-14T09:16:30;7.80;;;6.07;;
6832;SDS011;3454;42.654;23.378;2023-03-14T09:18:56;12.10;;;5.63;;
6832;SDS011;3454;42.654;23.378;2023-03-14T09:21:25;9.73;;;6.50;;
6832;SDS011;3454;42.654;23.378;2023-03-14T09:23:52;10.77;;;6.20;;
6832;SDS011;3454;42.654;23.378;2023-03-14T09:26:25;12.47;;;6.93;;
6832;SDS011;3454;42.654;23.378;2023-03-14T09:28:50;12.90;;;6.77;;
6832;SDS011;3454;42.654;23.378;2023-03-14T09:31:15;10.17;;;7.13;;
6832;SDS011;3454;42.654;23.378;2023-03-14T09:33:41;10.10;;;6.60;;
6832;SDS011;3454;42.654;23.378;2023-03-14T09:36:06;9.32;;;6.43;;
6832;SDS011;3454;42.654;23.378;2023-03-14T09:38:32;11.18;;;6.93;;
6832;SDS011;3454;42.654;23.378;2023-03-14T09:40:59;12.67;;;6.30;;
6832;SDS011;3454;42.654;23.378;2023-03-14T09:43:26;9.15;;;6.30;;
6832;SDS011;3454;42.654;23.378;2023-03-14T09:45:55;9.55;;;6.07;;
6832;SDS011;3454;42.654;23.378;2023-03-14T09:48:24;10.13;;;6.73;;
6832;SDS011;3454;42.654;23.378;2023-03-14T09:50:54;12.17;;;6.37;;
6832;SDS011;3454;42.654;23.378;2023-03-14T09:53:23;11.40;;;6.68;;
6832;SDS011;3454;42.654;23.378;2023-03-14T09:55:53;9.55;;;6.60;;
6832;SDS011;3454;42.654;23.378;2023-03-14T09:58:23;9.65;;;5.80;;
6832;SDS011;3454;42.654;23.378;2023-03-14T10:00:49;9.63;;;5.40;;
6832;SDS011;3454;42.654;23.378;2023-03-14T10:03:21;6.85;;;5.43;;
6832;SDS011;3454;42.654;23.378;2023-03-14T10:05:50;8.00;;;5.40;;
6832;SDS011;3454;42.654;23.378;2023-03-14T10:08:15;10.00;;;4.95;;
6832;SDS011;3454;42.654;23.378;2023-03-14T10:10:41;7.63;;;5.10;;
6832;SDS011;3454;42.654;23.378;2023-03-14T10:16:01;9.07;;;5.65;;
6832;SDS011;3454;42.654;23.378;2023-03-14T10:18:29;10.68;;;5.88;;
6832;SDS011;3454;42.654;23.378;2023-03-14T10:23:32;9.82;;;4.60;;
6832;SDS011;3454;42.654;23.378;2023-03-14T10:26:03;8.38;;;5.13;;
6832;SDS011;3454;42.654;23.378;2023-03-14T10:28:32;5.22;;;4.55;;
6832;SDS011;3454;42.654;23.378;2023-03-14T10:30:59;10.30;;;4.75;;
6832;SDS011;3454;42.654;23.378;2023-03-14T10:33:26;6.82;;;4.70;;
6832;SDS011;3454;42.654;23.378;2023-03-14T10:38:33;7.65;;;3.83;;
6832;SDS011;3454;42.654;23.378;2023-03-14T10:41:00;5.65;;;3.42;;
6832;SDS011;3454;42.654;23.378;2023-03-14T10:43:33;4.93;;;3.78;;
6832;SDS011;3454;42.654;23.378;2023-03-14T10:48:57;3.67;;;3.25;;
6832;SDS011;3454;42.654;23.378;2023-03-14T10:51:27;6.25;;;3.00;;
6832;SDS011;3454;42.654;23.378;2023-03-14T10:56:44;5.15;;;3.10;;
6832;SDS011;3454;42.654;23.378;2023-03-14T10:59:13;5.60;;;3.42;;
6832;SDS011;3454;42.654;23.378;2023-03-14T11:02:00;5.45;;;2.80;;
6832;SDS011;3454;42.654;23.378;2023-03-14T11:07:40;5.03;;;2.95;;
6832;SDS011;3454;42.654;23.378;2023-03-14T11:22:05;3.03;;;2.70;;
6832;SDS011;3454;42.654;23.378;2023-03-14T11:24:53;16.23;;;7.00;;
6832;SDS011;3454;42.654;23.378;2023-03-14T11:27:22;3.33;;;2.70;;
6832;SDS011;3454;42.654;23.378;2023-03-14T11:29:59;6.53;;;3.30;;
6832;SDS011;3454;42.654;23.378;2023-03-14T11:32:44;3.22;;;2.75;;
6832;SDS011;3454;42.654;23.378;2023-03-14T11:38:30;6.00;;;3.22;;
6832;SDS011;3454;42.654;23.378;2023-03-14T11:41:15;6.07;;;3.05;;
6832;SDS011;3454;42.654;23.378;2023-03-14T11:43:47;4.15;;;2.70;;
6832;SDS011;3454;42.654;23.378;2023-03-14T11:46:21;4.07;;;2.53;;
6832;SDS011;3454;42.654;23.378;2023-03-14T11:49:02;7.70;;;3.28;;
6832;SDS011;3454;42.654;23.378;2023-03-14T11:51:36;4.47;;;3.10;;
6832;SDS011;3454;42.654;23.378;2023-03-14T11:54:17;3.90;;;2.30;;
6832;SDS011;3454;42.654;23.378;2023-03-14T11:57:05;5.47;;;2.63;;
6832;SDS011;3454;42.654;23.378;2023-03-14T12:02:47;6.35;;;3.10;;
6832;SDS011;3454;42.654;23.378;2023-03-14T12:10:22;2.53;;;2.08;;
6832;SDS011;3454;42.654;23.378;2023-03-14T12:12:48;7.68;;;2.45;;
6832;SDS011;3454;42.654;23.378;2023-03-14T12:15:20;5.20;;;2.10;;
6832;SDS011;3454;42.654;23.378;2023-03-14T12:17:52;3.10;;;1.65;;
6832;SDS011;3454;42.654;23.378;2023-03-14T12:20:21;4.38;;;2.10;;
6832;SDS011;3454;42.654;23.378;2023-03-14T12:22:54;3.20;;;2.17;;
6832;SDS011;3454;42.654;23.378;2023-03-14T12:25:36;2.92;;;2.13;;
6832;SDS011;3454;42.654;23.378;2023-03-14T12:28:04;4.18;;;1.60;;
6832;SDS011;3454;42.654;23.378;2023-03-14T12:30:40;3.47;;;1.58;;
6832;SDS011;3454;42.654;23.378;2023-03-14T12:38:12;1.60;;;1.40;;
6832;SDS011;3454;42.654;23.378;2023-03-14T12:41:05;3.38;;;1.67;;
6832;SDS011;3454;42.654;23.378;2023-03-14T12:43:38;2.20;;;2.00;;
6832;SDS011;3454;42.654;23.378;2023-03-14T12:46:08;5.18;;;2.20;;
6832;SDS011;3454;42.654;23.378;2023-03-14T12:48:40;5.65;;;2.40;;
6832;SDS011;3454;42.654;23.378;2023-03-14T12:51:12;3.08;;;1.83;;
6832;SDS011;3454;42.654;23.378;2023-03-14T12:53:43;4.70;;;1.63;;
6832;SDS011;3454;42.654;23.378;2023-03-14T12:56:24;2.42;;;1.63;;
6832;SDS011;3454;42.654;23.378;2023-03-14T13:01:55;2.05;;;1.67;;
6832;SDS011;3454;42.654;23.378;2023-03-14T13:04:49;3.13;;;1.90;;
6832;SDS011;3454;42.654;23.378;2023-03-14T13:10:15;2.10;;;1.88;;
6832;SDS011;3454;42.654;23.378;2023-03-14T13:12:53;2.85;;;1.63;;
6832;SDS011;3454;42.654;23.378;2023-03-14T13:15:46;3.50;;;1.65;;
6832;SDS011;3454;42.654;23.378;2023-03-14T13:18:58;2.63;;;1.58;;
6832;SDS011;3454;42.654;23.378;2023-03-14T13:21:07;4.32;;;1.52;;
6832;SDS011;3454;42.654;23.378;2023-03-14T13:23:38;2.38;;;1.67;;
6832;SDS011;3454;42.654;23.378;2023-03-14T13:26:09;1.63;;;1.52;;
6832;SDS011;3454;42.654;23.378;2023-03-14T13:28:39;2.88;;;1.60;;
6832;SDS011;3454;42.654;23.378;2023-03-14T13:31:04;2.08;;;1.52;;
6832;SDS011;3454;42.654;23.378;2023-03-14T13:33:32;5.30;;;1.50;;
6832;SDS011;3454;42.654;23.378;2023-03-14T13:35:59;3.58;;;1.73;;
6832;SDS011;3454;42.654;23.378;2023-03-14T13:38:29;2.25;;;1.88;;
6832;SDS011;3454;42.654;23.378;2023-03-14T13:41:00;1.60;;;1.50;;
6832;SDS011;3454;42.654;23.378;2023-03-14T13:43:30;6.28;;;2.40;;
6832;SDS011;3454;42.654;23.378;2023-03-14T13:46:07;2.40;;;1.60;;
6832;SDS011;3454;42.654;23.378;2023-03-14T13:48:43;1.80;;;1.50;;
6832;SDS011;3454;42.654;23.378;2023-03-14T13:51:11;2.60;;;1.83;;
6832;SDS011;3454;42.654;23.378;2023-03-14T13:53:46;4.05;;;1.63;;
6832;SDS011;3454;42.654;23.378;2023-03-14T13:56:15;4.45;;;1.80;;
6832;SDS011;3454;42.654;23.378;2023-03-14T13:58:41;1.60;;;1.40;;
6832;SDS011;3454;42.654;23.378;2023-03-14T14:01:14;4.13;;;1.55;;
6832;SDS011;3454;42.654;23.378;2023-03-14T14:03:50;2.28;;;1.42;;
6832;SDS011;3454;42.654;23.378;2023-03-14T14:06:28;2.90;;;1.27;;
6832;SDS011;3454;42.654;23.378;2023-03-14T14:08:56;3.17;;;1.95;;
6832;SDS011;3454;42.654;23.378;2023-03-14T14:11:46;4.72;;;1.80;;
6832;SDS011;3454;42.654;23.378;2023-03-14T14:14:15;2.85;;;1.60;;
6832;SDS011;3454;42.654;23.378;2023-03-14T14:17:07;3.08;;;2.00;;
6832;SDS011;3454;42.654;23.378;2023-03-14T14:19:36;5.00;;;1.85;;
6832;SDS011;3454;42.654;23.378;2023-03-14T14:22:03;2.17;;;1.60;;
6832;SDS011;3454;42.654;23.378;2023-03-14T14:24:30;1.55;;;1.40;;
6832;SDS011;3454;42.654;23.378;2023-03-14T14:29:42;2.67;;;1.50;;
6832;SDS011;3454;42.654;23.378;2023-03-14T14:37:33;4.57;;;1.52;;
6832;SDS011;3454;42.654;23.378;2023-03-14T14:40:21;6.10;;;1.92;;
6832;SDS011;3454;42.654;23.378;2023-03-14T14:42:47;4.68;;;1.65;;
6832;SDS011;3454;42.654;23.378;2023-03-14T14:45:19;4.18;;;1.50;;
6832;SDS011;3454;42.654;23.378;2023-03-14T14:47:57;3.10;;;1.83;;
6832;SDS011;3454;42.654;23.378;2023-03-14T14:50:33;2.83;;;1.70;;
6832;SDS011;3454;42.654;23.378;2023-03-14T14:53:16;2.13;;;1.60;;
6832;SDS011;3454;42.654;23.378;2023-03-14T14:55:49;1.80;;;1.40;;
6832;SDS011;3454;42.654;23.378;2023-03-14T15:00:54;2.80;;;1.50;;
6832;SDS011;3454;42.654;23.378;2023-03-14T15:03:25;2.50;;;1.65;;
6832;SDS011;3454;42.654;23.378;2023-03-14T15:05:53;1.67;;;1.58;;
6832;SDS011;3454;42.654;23.378;2023-03-14T15:08:20;3.35;;;1.95;;
6832;SDS011;3454;42.654;23.378;2023-03-14T15:10:46;2.08;;;1.58;;
6832;SDS011;3454;42.654;23.378;2023-03-14T15:13:11;6.65;;;2.00;;
6832;SDS011;3454;42.654;23.378;2023-03-14T15:15:36;2.45;;;1.38;;
6832;SDS011;3454;42.654;23.378;2023-03-14T15:18:07;2.33;;;1.20;;
6832;SDS011;3454;42.654;23.378;2023-03-14T15:20:38;2.38;;;1.50;;
6832;SDS011;3454;42.654;23.378;2023-03-14T15:23:07;12.10;;;1.98;;
6832;SDS011;3454;42.654;23.378;2023-03-14T15:25:35;6.65;;;1.60;;
6832;SDS011;3454;42.654;23.378;2023-03-14T15:28:01;2.60;;;1.48;;
6832;SDS011;3454;42.654;23.378;2023-03-14T15:30:27;2.50;;;1.40;;
6832;SDS011;3454;42.654;23.378;2023-03-14T15:32:52;2.28;;;1.38;;
6832;SDS011;3454;42.654;23.378;2023-03-14T15:35:17;1.75;;;1.65;;
6832;SDS011;3454;42.654;23.378;2023-03-14T15:37:43;1.63;;;1.27;;
6832;SDS011;3454;42.654;23.378;2023-03-14T15:40:10;4.72;;;1.75;;
6832;SDS011;3454;42.654;23.378;2023-03-14T15:42:38;4.75;;;1.90;;
6832;SDS011;3454;42.654;23.378;2023-03-14T15:45:04;2.90;;;1.73;;
6832;SDS011;3454;42.654;23.378;2023-03-14T15:47:31;5.35;;;2.05;;
6832;SDS011;3454;42.654;23.378;2023-03-14T15:49:57;5.15;;;1.75;;
6832;SDS011;3454;42.654;23.378;2023-03-14T15:52:23;8.02;;;2.28;;
6832;SDS011;3454;42.654;23.378;2023-03-14T15:54:48;6.65;;;2.80;;
6832;SDS011;3454;42.654;23.378;2023-03-14T15:57:13;2.30;;;1.63;;
6832;SDS011;3454;42.654;23.378;2023-03-14T15:59:39;5.70;;;2.13;;
6832;SDS011;3454;42.654;23.378;2023-03-14T16:02:04;4.40;;;1.80;;
6832;SDS011;3454;42.654;23.378;2023-03-14T16:04:31;4.55;;;2.05;;
6832;SDS011;3454;42.654;23.378;2023-03-14T16:06:56;4.68;;;2.30;;
6832;SDS011;3454;42.654;23.378;2023-03-14T16:09:22;2.67;;;1.98;;
6832;SDS011;3454;42.654;23.378;2023-03-14T16:11:49;4.53;;;2.25;;